Time;durP1;ratioP1;P1;durP2;ratioP2;P2;SDS_P1;SDS_P2;PMS_P1;PMS_P2;Temp;Humidity;BMP_temperature;BMP_pressure;BME280_temperature;BME280_humidity;BME280_pressure;Samples;Min_cycle;Max_cycle;Signal;HPM_P1;HPM_P2
2023/04/06 00:01:07;;;;;;;11.27;10.00;;;0.30;99.90;;;0.99;78.89;98199.19;5236272;28;20207;-64
2023/04/06 00:03:40;;;;;;;11.03;10.03;;;0.30;99.90;;;0.80;77.97;98193.03;5240262;28;20211;-64
2023/04/06 00:06:13;;;;;;;10.00;9.20;;;0.10;99.90;;;0.80;78.46;98196.47;5230569;28;20723;-63
2023/04/06 00:08:49;;;;;;;11.50;10.43;;;0.10;99.90;;;0.58;79.23;98195.94;5231820;28;20231;-63
2023/04/06 00:11:23;;;;;;;11.57;10.50;;;0.00;99.90;;;0.54;78.64;98192.97;5228709;28;20204;-64
2023/04/06 00:13:56;;;;;;;10.47;9.47;;;0.00;99.90;;;0.51;79.81;98188.50;5233289;28;20237;-64
2023/04/06 00:16:29;;;;;;;10.87;9.80;;;-0.10;99.90;;;0.42;79.41;98188.47;5236176;28;20229;-64
2023/04/06 00:19:02;;;;;;;11.50;10.50;;;-0.10;99.90;;;0.42;79.67;98187.59;5229805;28;20677;-64
2023/04/06 00:21:35;;;;;;;10.97;9.87;;;-0.10;99.90;;;0.45;79.61;98188.78;5235145;28;20209;-64
2023/04/06 00:24:09;;;;;;;11.27;10.27;;;-0.10;99.90;;;0.50;79.48;98190.88;5238268;28;20251;-64
2023/04/06 00:26:43;;;;;;;11.37;10.33;;;-0.10;99.90;;;0.50;79.64;98185.84;5234157;28;20189;-64
2023/04/06 00:29:16;;;;;;;10.87;9.87;;;-0.10;99.90;;;0.45;80.38;98188.78;5235565;28;20196;-64
2023/04/06 00:31:49;;;;;;;11.23;10.17;;;-0.20;99.90;;;0.56;79.65;98187.34;5233772;28;20221;-64
2023/04/06 00:34:22;;;;;;;12.37;11.27;;;-0.10;99.90;;;0.60;79.60;98179.41;5231078;28;20231;-63
2023/04/06 00:36:55;;;;;;;11.30;10.23;;;0.00;99.90;;;0.60;79.85;98184.44;5234597;28;20216;-64
2023/04/06 00:39:28;;;;;;;11.67;10.57;;;0.00;99.90;;;0.51;80.83;98180.97;5232255;28;20216;-64
2023/04/06 00:42:12;;;;;;;11.37;10.27;;;-0.10;99.90;;;0.42;80.01;98178.41;5235086;28;20207;-63
2023/04/06 00:44:45;;;;;;;11.20;10.20;;;-0.20;99.90;;;0.43;80.76;98180.22;5236163;28;20579;-65
2023/04/06 00:47:18;;;;;;;12.37;11.30;;;-0.30;99.90;;;0.48;80.57;98170.59;5230924;28;20774;-63
2023/04/06 00:49:51;;;;;;;11.33;10.33;;;-0.20;99.90;;;0.49;81.52;98171.50;5235548;28;20202;-64
2023/04/06 00:52:24;;;;;;;12.47;11.37;;;-0.20;99.90;;;0.37;81.13;98174.56;5238674;28;20577;-64
2023/04/06 00:54:57;;;;;;;12.03;11.03;;;-0.30;99.90;;;0.22;82.01;98166.34;5235542;28;20258;-63
2023/04/06 00:57:32;;;;;;;11.97;10.77;;;-0.30;99.90;;;0.20;81.50;98171.94;5231960;28;20226;-64
2023/04/06 01:00:07;;;;;;;12.03;10.90;;;-0.40;99.90;;;0.24;80.64;98169.03;5242046;28;20205;-64
2023/04/06 01:02:40;;;;;;;12.03;10.87;;;-0.40;99.90;;;0.34;81.54;98164.19;5232005;28;20217;-63
2023/04/06 01:05:13;;;;;;;10.90;9.80;;;-0.30;99.90;;;0.35;81.22;98155.94;5238133;28;20216;-63
2023/04/06 01:07:46;;;;;;;11.80;10.80;;;-0.30;99.90;;;0.43;80.92;98169.28;5244381;28;20205;-64
2023/04/06 01:10:26;;;;;;;11.40;10.30;;;-0.20;99.90;;;0.44;81.23;98166.91;5233266;28;20299;-64
2023/04/06 01:13:01;;;;;;;11.17;10.17;;;-0.20;99.90;;;0.32;80.89;98160.66;5237518;28;20216;-65
2023/04/06 01:15:38;;;;;;;10.90;9.90;;;-0.30;99.90;;;0.39;81.08;98158.00;5235576;28;20223;-64
2023/04/06 01:18:11;;;;;;;10.83;9.73;;;-0.30;99.90;;;0.31;80.08;98160.47;5249537;28;20225;-64
2023/04/06 01:20:44;;;;;;;12.00;10.57;;;-0.40;99.90;;;0.32;80.09;98155.63;5241126;28;20649;-64
2023/04/06 01:23:18;;;;;;;11.93;10.33;;;-0.30;99.90;;;0.27;80.54;98159.28;5235758;28;20201;-62
2023/04/06 01:25:51;;;;;;;11.37;10.43;;;-0.40;99.90;;;0.33;81.41;98162.41;5233202;28;20208;-63
2023/04/06 01:28:24;;;;;;;11.23;10.33;;;-0.30;99.90;;;0.43;81.50;98154.19;5240523;28;20194;-64
2023/04/06 01:30:57;;;;;;;11.30;10.27;;;-0.20;99.90;;;0.30;80.40;98152.06;5229020;28;20202;-64
2023/04/06 01:33:30;;;;;;;12.20;11.00;;;-0.30;99.90;;;0.37;81.43;98149.44;5234666;28;20734;-64
2023/04/06 01:36:05;;;;;;;12.00;10.90;;;-0.30;99.90;;;0.27;81.18;98146.72;5236097;28;20231;-64
2023/04/06 01:38:39;;;;;;;12.17;11.10;;;-0.40;99.90;;;0.18;80.90;98145.81;5229869;28;20211;-64
2023/04/06 01:41:12;;;;;;;12.57;11.27;;;-0.40;99.90;;;0.28;81.96;98143.47;5230295;28;20655;-64
2023/04/06 01:43:47;;;;;;;12.10;11.00;;;-0.40;99.90;;;0.26;81.12;98133.97;5238362;28;20211;-64
2023/04/06 01:46:20;;;;;;;11.77;10.60;;;-0.40;99.90;;;0.26;81.54;98139.94;5236219;28;20221;-63
2023/04/06 01:48:53;;;;;;;11.53;10.63;;;-0.40;99.90;;;0.29;81.47;98140.22;5241323;28;20206;-65
2023/04/06 01:51:26;;;;;;;11.83;10.77;;;-0.40;99.90;;;0.33;81.15;98142.31;5238879;28;20211;-64
2023/04/06 01:54:00;;;;;;;11.73;10.53;;;-0.30;99.90;;;0.38;81.86;98125.19;5235846;28;20209;-64
2023/04/06 01:56:33;;;;;;;11.87;10.67;;;-0.30;99.90;;;0.42;81.63;98127.25;5236274;28;20588;-65
2023/04/06 01:59:06;;;;;;;11.47;10.47;;;-0.30;99.90;;;0.43;81.16;98129.06;5240386;28;20297;-64
2023/04/06 02:01:40;;;;;;;12.10;11.00;;;-0.30;99.90;;;0.48;81.68;98124.47;5231872;28;20688;-63
2023/04/06 02:04:13;;;;;;;12.23;11.03;;;-0.30;99.90;;;0.29;82.07;98130.19;5237819;28;20200;-63
2023/04/06 02:06:46;;;;;;;11.93;10.87;;;-0.40;99.90;;;0.26;81.50;98134.91;5234741;28;20189;-63
2023/04/06 02:09:21;;;;;;;11.97;10.83;;;-0.50;99.90;;;0.31;82.52;98128.69;5234193;28;20224;-64
2023/04/06 02:11:54;;;;;;;12.57;11.47;;;-0.40;99.90;;;0.32;81.34;98130.47;5231694;28;20652;-64
2023/04/06 02:14:27;;;;;;;11.53;10.57;;;-0.50;99.90;;;0.31;81.33;98127.81;5239174;28;20221;-64
2023/04/06 02:17:00;;;;;;;11.60;10.47;;;-0.50;99.90;;;0.28;81.63;98133.41;5237796;28;20587;-64
2023/04/06 02:19:33;;;;;;;10.60;9.67;;;-0.50;99.90;;;0.28;82.36;98133.41;5238889;28;20204;-65
2023/04/06 02:22:06;;;;;;;12.33;11.23;;;-0.60;99.90;;;0.22;82.77;98132.78;5235419;28;20211;-64
2023/04/06 02:24:40;;;;;;;11.10;10.10;;;-0.60;99.90;;;0.16;82.09;98130.56;5234160;28;20224;-65
2023/04/06 02:27:14;;;;;;;11.83;10.63;;;-0.60;99.90;;;0.18;83.28;98128.22;5234823;28;20232;-65
2023/04/06 02:29:47;;;;;;;11.27;10.27;;;-0.60;99.90;;;0.20;82.22;98126.72;5237946;28;20673;-64
2023/04/06 02:32:20;;;;;;;11.77;10.77;;;-0.60;99.90;;;0.09;82.43;98122.25;5236409;28;20200;-63
2023/04/06 02:34:53;;;;;;;12.77;11.57;;;-0.70;99.90;;;0.08;83.26;98117.94;5237410;28;20216;-63
2023/04/06 02:37:26;;;;;;;11.07;10.07;;;-0.60;99.90;;;0.18;83.08;98123.19;5231322;28;20223;-64
2023/04/06 02:40:00;;;;;;;11.77;10.73;;;-0.70;99.90;;;0.13;82.90;98121.81;5233831;28;20207;-64
2023/04/06 02:42:34;;;;;;;11.37;10.07;;;-0.70;99.90;;;0.13;82.57;98126.84;5233860;28;20292;-63
2023/04/06 02:45:09;;;;;;;11.47;10.53;;;-0.70;99.90;;;0.05;82.70;98117.63;5232708;28;20344;-64
2023/04/06 02:47:42;;;;;;;11.13;10.13;;;-0.70;99.90;;;0.05;83.16;98121.03;5242548;28;20198;-63
2023/04/06 02:50:15;;;;;;;11.73;10.70;;;-0.80;99.90;;;0.05;82.67;98111.00;5240508;28;20197;-63
2023/04/06 02:52:48;;;;;;;11.67;10.47;;;-0.80;99.90;;;0.01;83.04;98118.97;5239321;28;20205;-63
2023/04/06 02:55:23;;;;;;;11.40;10.40;;;-0.80;99.90;;;-0.02;82.99;98112.00;5235133;28;20235;-63
2023/04/06 02:57:56;;;;;;;10.87;9.97;;;-0.80;99.90;;;-0.08;84.43;98111.38;5234731;28;20219;-64
2023/04/06 03:00:29;;;;;;;11.53;10.43;;;-0.90;99.90;;;-0.07;84.10;98107.25;5239245;28;20216;-64
2023/04/06 03:03:02;;;;;;;11.57;10.37;;;-0.90;99.90;;;-0.11;84.03;98113.59;5239819;28;20205;-65
2023/04/06 03:05:35;;;;;;;10.50;9.57;;;-0.90;99.90;;;-0.06;83.75;98106.50;5232576;28;20246;-64
2023/04/06 03:08:08;;;;;;;12.00;10.90;;;-0.90;99.90;;;-0.05;83.90;98114.22;5232100;28;20201;-63
2023/04/06 03:10:42;;;;;;;12.17;10.97;;;-0.90;99.90;;;-0.11;83.95;98118.63;5232654;28;20215;-63
2023/04/06 03:13:15;;;;;;;12.60;11.40;;;-1.00;99.90;;;-0.18;84.33;98112.81;5237608;28;20609;-63
2023/04/06 03:15:48;;;;;;;11.13;10.13;;;-1.00;99.90;;;-0.23;84.57;98114.81;5237399;28;20235;-63
2023/04/06 03:18:23;;;;;;;11.03;10.13;;;-1.00;99.90;;;-0.25;83.80;98117.19;5237174;28;20225;-64
2023/04/06 03:20:57;;;;;;;12.80;11.23;;;-1.10;99.90;;;-0.26;83.25;98117.94;5238012;28;20687;-64
2023/04/06 03:23:29;;;;;;;11.73;10.63;;;-1.00;99.90;;;-0.24;83.55;98113.06;5237553;28;20197;-63
2023/04/06 03:26:04;;;;;;;11.90;10.80;;;-1.10;99.90;;;-0.28;84.77;98116.88;5238109;28;20216;-64
2023/04/06 03:28:37;;;;;;;11.73;10.53;;;-1.10;99.90;;;-0.32;83.78;98113.88;5238187;28;20211;-64
2023/04/06 03:31:10;;;;;;;11.43;10.33;;;-1.10;99.90;;;-0.41;84.26;98123.00;5237423;28;20201;-63
2023/04/06 03:33:43;;;;;;;11.57;10.63;;;-1.10;99.90;;;-0.49;83.52;98122.19;5235679;28;20244;-62
2023/04/06 03:36:16;;;;;;;11.60;10.60;;;-1.20;99.90;;;-0.52;83.11;98120.25;5234934;28;20220;-63
2023/04/06 03:38:49;;;;;;;11.43;10.33;;;-1.30;99.90;;;-0.59;84.23;98122.88;5241220;28;20262;-64
2023/04/06 03:41:24;;;;;;;11.50;10.60;;;-1.30;99.90;;;-0.54;83.31;98125.88;5234491;28;20193;-63
2023/04/06 03:43:57;;;;;;;12.00;10.80;;;-1.30;99.90;;;-0.53;83.45;98128.53;5238879;28;20625;-63
2023/04/06 03:46:30;;;;;;;12.90;11.73;;;-1.30;99.90;;;-0.52;83.21;98125.28;5236600;28;20239;-64
2023/04/06 03:49:03;;;;;;;11.70;10.70;;;-1.30;99.90;;;-0.54;84.91;98126.75;5237167;28;20197;-64
2023/04/06 03:51:35;;;;;;;11.43;10.43;;;-1.30;99.90;;;-0.52;84.92;98129.41;5231930;28;20197;-63
2023/04/06 03:54:08;;;;;;;12.23;11.13;;;-1.30;99.90;;;-0.55;85.20;98135.00;5232804;28;20200;-63
2023/04/06 03:56:43;;;;;;;12.40;11.27;;;-1.30;99.90;;;-0.55;84.45;98134.13;5239104;28;20212;-63
2023/04/06 03:59:16;;;;;;;11.63;10.63;;;-1.30;99.90;;;-0.55;85.14;98129.97;5237319;28;20570;-63
2023/04/06 04:01:49;;;;;;;12.40;11.17;;;-1.30;99.90;;;-0.54;84.66;98136.81;5237647;28;20262;-64
2023/04/06 04:04:22;;;;;;;11.57;10.60;;;-1.30;99.90;;;-0.54;84.96;98120.88;5236171;28;20224;-64
2023/04/06 04:06:55;;;;;;;12.10;10.90;;;-1.20;99.90;;;-0.52;85.24;98125.28;5238238;28;20197;-64
2023/04/06 04:09:28;;;;;;;14.40;12.07;;;-1.30;99.90;;;-0.53;86.06;98127.66;5234604;28;20196;-63
2023/04/06 04:12:03;;;;;;;11.30;10.27;;;-1.30;99.90;;;-0.50;84.70;98135.50;5239297;28;20317;-63
2023/04/06 04:14:36;;;;;;;11.80;10.77;;;-1.20;99.90;;;-0.51;86.13;98139.63;5235813;28;20310;-63
2023/04/06 04:17:09;;;;;;;12.80;11.60;;;-1.20;99.90;;;-0.51;85.71;98137.13;5232623;28;20292;-63
2023/04/06 04:19:42;;;;;;;12.60;11.40;;;-1.30;99.90;;;-0.52;85.69;98135.31;5237628;28;20228;-63
2023/04/06 04:22:15;;;;;;;13.17;11.90;;;-1.30;99.90;;;-0.53;86.17;98147.72;5239481;28;20196;-61
2023/04/06 04:24:48;;;;;;;11.90;10.70;;;-1.30;99.90;;;-0.66;84.18;98140.53;5232829;28;20247;-64
2023/04/06 04:27:22;;;;;;;14.10;12.13;;;-1.40;99.90;;;-0.62;86.03;98145.16;5236151;28;20235;-64
2023/04/06 04:29:56;;;;;;;12.80;11.70;;;-1.30;99.90;;;-0.60;85.15;98151.22;5237035;28;20199;-63
2023/04/06 04:32:28;;;;;;;13.87;12.60;;;-1.40;99.90;;;-0.58;86.11;98138.81;5234770;28;20218;-63
2023/04/06 04:35:02;;;;;;;13.30;12.00;;;-1.40;99.90;;;-0.55;86.21;98140.03;5232409;28;20270;-63
2023/04/06 04:37:35;;;;;;;13.30;11.90;;;-1.40;99.90;;;-0.58;85.19;98137.19;5239778;28;20203;-63
2023/04/06 04:40:10;;;;;;;13.50;12.23;;;-1.40;99.90;;;-0.62;85.14;98142.66;5235324;28;20608;-64
2023/04/06 04:42:44;;;;;;;13.23;11.90;;;-1.40;99.90;;;-0.64;85.47;98134.06;5241765;28;20211;-63
2023/04/06 04:45:17;;;;;;;16.13;14.43;;;-1.40;99.90;;;-0.65;85.81;98142.31;5232963;28;20232;-64
2023/04/06 04:47:50;;;;;;;15.53;14.03;;;-1.40;99.90;;;-0.62;86.50;98145.16;5239434;28;20201;-64
2023/04/06 04:50:23;;;;;;;14.10;12.80;;;-1.30;99.90;;;-0.58;85.35;98146.34;5232964;28;20193;-62
2023/04/06 04:52:56;;;;;;;12.93;11.83;;;-1.30;99.90;;;-0.57;85.25;98149.03;5232945;28;20200;-63
2023/04/06 04:55:29;;;;;;;12.27;11.17;;;-1.30;99.90;;;-0.55;86.45;98155.09;5231491;28;20231;-63
2023/04/06 04:58:04;;;;;;;12.93;11.83;;;-1.30;99.90;;;-0.55;86.66;98151.69;5241007;28;20802;-63
2023/04/06 05:00:37;;;;;;;13.63;12.37;;;-1.30;99.90;;;-0.58;85.86;98149.75;5238708;28;20232;-63
2023/04/06 05:03:15;;;;;;;13.23;12.03;;;-1.30;99.90;;;-0.56;86.56;98153.31;5242064;28;20207;-64
2023/04/06 05:05:48;;;;;;;13.03;11.77;;;-1.30;99.90;;;-0.53;87.20;98160.28;5231941;28;20244;-63
2023/04/06 05:08:21;;;;;;;13.60;12.40;;;-1.30;99.90;;;-0.59;85.90;98160.53;5233949;28;20852;-63
2023/04/06 05:10:54;;;;;;;13.27;11.97;;;-1.30;99.90;;;-0.55;85.69;98159.22;5232924;28;20197;-63
2023/04/06 05:13:30;;;;;;;13.03;11.73;;;-1.40;99.90;;;-0.55;86.94;98172.66;5235543;28;20693;-63
2023/04/06 05:16:03;;;;;;;11.90;10.90;;;-1.40;99.90;;;-0.47;85.37;98168.44;5234425;28;20230;-64
2023/04/06 05:18:36;;;;;;;12.67;11.53;;;-1.30;99.90;;;-0.38;85.87;98178.56;5235228;28;20220;-64
2023/04/06 05:21:10;;;;;;;12.80;11.70;;;-1.30;99.90;;;-0.33;85.34;98172.38;5237428;28;20235;-64
2023/04/06 05:23:43;;;;;;;12.30;11.20;;;-1.30;99.90;;;-0.33;85.44;98179.91;5229581;28;20205;-64
2023/04/06 05:26:16;;;;;;;13.30;12.20;;;-1.20;99.90;;;-0.36;85.34;98185.50;5232768;28;20220;-64
2023/04/06 05:28:50;;;;;;;12.50;11.40;;;-1.20;99.90;;;-0.42;85.77;98177.34;5234957;28;20192;-64
2023/04/06 05:31:23;;;;;;;13.83;12.60;;;-1.20;99.90;;;-0.45;85.75;98182.06;5236594;28;20207;-65
2023/04/06 05:33:57;;;;;;;13.17;11.97;;;-1.30;99.90;;;-0.43;86.82;98184.72;5230393;28;20200;-64
2023/04/06 05:36:32;;;;;;;13.30;12.10;;;-1.30;99.90;;;-0.31;86.37;98191.03;5235087;28;20208;-63
2023/04/06 05:39:05;;;;;;;13.60;12.33;;;-1.20;99.90;;;-0.17;85.06;98184.88;5238224;28;20212;-64
2023/04/06 05:41:38;;;;;;;13.63;12.33;;;-1.10;99.90;;;-0.03;85.36;98188.13;5232986;28;20197;-64
2023/04/06 05:44:13;;;;;;;13.63;12.43;;;-1.00;99.90;;;0.28;84.05;98193.72;5228883;28;20674;-64
2023/04/06 05:46:46;;;;;;;13.80;12.53;;;-0.80;99.90;;;0.47;83.24;98198.13;5232865;28;20236;-64
2023/04/06 05:49:19;;;;;;;12.20;11.13;;;-0.70;99.90;;;0.79;82.13;98184.63;5235983;28;20197;-63
2023/04/06 05:51:52;;;;;;;11.23;10.37;;;-0.50;99.90;;;1.23;79.43;98188.13;5227228;28;20209;-64
2023/04/06 05:54:25;;;;;;;12.30;11.20;;;-0.20;99.90;;;1.33;79.43;98190.78;5235852;28;20729;-64
2023/04/06 05:56:58;;;;;;;12.43;11.23;;;0.00;99.90;;;1.61;78.83;98190.97;5232513;28;20214;-62
2023/04/06 05:59:32;;;;;;;11.60;10.50;;;0.20;99.90;;;1.94;77.00;98189.88;5227520;28;20221;-64
2023/04/06 06:02:05;;;;;;;12.23;11.13;;;0.40;99.90;;;2.20;75.77;98198.31;5235768;28;20203;-64
2023/04/06 06:04:38;;;;;;;12.07;11.07;;;0.70;99.90;;;2.62;74.91;98192.94;5234521;28;20227;-63
2023/04/06 06:07:11;;;;;;;13.37;12.07;;;1.00;99.90;;;2.83;72.14;98198.19;5233102;28;20689;-65
2023/04/06 06:09:44;;;;;;;12.30;11.20;;;1.30;99.90;;;3.06;71.73;98198.69;5234580;28;20657;-63
2023/04/06 06:12:17;;;;;;;13.40;12.10;;;1.40;99.90;;;3.45;70.90;98192.91;5226528;28;20669;-63
2023/04/06 06:14:51;;;;;;;12.93;11.70;;;1.70;99.90;;;3.73;69.72;98200.44;5227158;28;20674;-63
2023/04/06 06:17:24;;;;;;;12.70;11.37;;;2.00;99.90;;;3.81;67.86;98202.00;5235881;28;20202;-63
2023/04/06 06:19:57;;;;;;;13.17;11.93;;;2.00;99.90;;;3.67;67.68;98198.25;5232117;28;20223;-63
2023/04/06 06:22:30;;;;;;;13.00;11.80;;;2.10;99.90;;;3.78;67.52;98201.75;5235606;28;20206;-62
2023/04/06 06:25:04;;;;;;;13.33;12.00;;;2.10;99.90;;;3.88;66.73;98189.13;5234573;28;20232;-63
2023/04/06 06:27:37;;;;;;;12.80;11.60;;;2.20;99.90;;;4.07;66.93;98207.72;5236156;28;20226;-64
2023/04/06 06:30:12;;;;;;;11.43;10.43;;;2.30;99.90;;;4.33;65.66;98206.56;5238871;28;20204;-63
2023/04/06 06:32:46;;;;;;;12.00;11.00;;;2.40;99.90;;;4.56;66.34;98197.53;5239446;28;20679;-63
2023/04/06 06:35:19;;;;;;;12.30;11.20;;;2.60;99.90;;;5.01;63.82;98192.03;5237562;28;20226;-65
2023/04/06 06:37:52;;;;;;;12.40;11.30;;;3.00;99.90;;;5.30;62.54;98192.81;5234021;28;20284;-62
2023/04/06 06:40:25;;;;;;;12.93;11.83;;;3.30;99.90;;;5.30;60.92;98197.88;5239151;28;20607;-64
2023/04/06 06:42:59;;;;;;;12.10;11.17;;;3.40;99.90;;;5.79;59.63;98186.66;5236053;28;20235;-63
2023/04/06 06:45:33;;;;;;;12.10;11.00;;;3.70;99.90;;;5.85;58.74;98192.22;5239136;28;20223;-63
2023/04/06 06:48:07;;;;;;;12.00;11.00;;;3.80;99.90;;;5.96;59.41;98192.25;5235743;28;20206;-62
2023/04/06 06:50:40;;;;;;;11.93;10.83;;;3.90;99.90;;;6.11;59.26;98190.94;5230401;28;20534;-63
2023/04/06 06:53:13;;;;;;;11.57;10.47;;;4.10;99.90;;;6.47;57.85;98182.78;5241664;28;20279;-63
2023/04/06 06:55:48;;;;;;;11.57;10.50;;;4.40;99.90;;;6.74;56.57;98184.03;5238130;28;20227;-63
2023/04/06 06:58:21;;;;;;;11.30;10.27;;;4.60;99.90;;;6.84;56.45;98188.19;5229685;28;20207;-63
2023/04/06 07:00:58;;;;;;;11.57;10.37;;;4.80;99.90;;;7.10;55.13;98190.16;5238482;28;20225;-63
2023/04/06 07:03:31;;;;;;;11.30;10.27;;;4.80;99.90;;;7.26;55.62;98187.09;5241073;28;20200;-64
2023/04/06 07:06:05;;;;;;;10.97;10.07;;;5.00;99.90;;;7.48;53.96;98179.41;5237979;28;20704;-63
2023/04/06 07:08:38;;;;;;;12.60;11.33;;;5.20;99.90;;;7.63;53.04;98190.72;5239393;28;20204;-62
2023/04/06 07:11:11;;;;;;;12.03;11.13;;;5.30;99.90;;;8.31;51.35;98180.31;5235588;28;20200;-63
2023/04/06 07:13:44;;;;;;;12.70;11.57;;;5.80;99.20;;;8.80;50.60;98179.56;5236346;28;20226;-63
2023/04/06 07:16:18;;;;;;;11.83;10.90;;;6.00;98.90;;;8.89;49.97;98181.84;5234763;28;20217;-63
2023/04/06 07:18:51;;;;;;;11.93;10.93;;;6.30;98.10;;;9.03;49.16;98180.25;5232194;28;20200;-64
2023/04/06 07:21:25;;;;;;;11.87;10.77;;;6.30;97.70;;;9.64;48.71;98186.00;5243035;28;20760;-63
2023/04/06 07:23:58;;;;;;;11.87;10.87;;;6.60;97.50;;;9.92;47.63;98178.47;5232031;28;20207;-65
2023/04/06 07:26:31;;;;;;;12.10;11.00;;;7.00;96.50;;;9.90;47.09;98180.94;5237327;28;20203;-63
2023/04/06 07:29:04;;;;;;;13.10;12.00;;;7.10;96.20;;;10.00;47.14;98171.31;5230154;28;20201;-64
2023/04/06 07:31:38;;;;;;;12.00;10.90;;;7.40;95.50;;;9.87;46.90;98185.88;5235985;28;20570;-63
2023/04/06 07:34:11;;;;;;;11.73;10.63;;;7.60;95.20;;;9.82;46.98;98182.13;5237107;28;20204;-63
2023/04/06 07:36:44;;;;;;;19.30;12.17;;;7.80;94.40;;;9.89;46.61;98183.41;5239651;28;20204;-64
2023/04/06 07:39:17;;;;;;;12.17;11.17;;;7.90;94.30;;;9.92;47.35;98179.34;5237277;28;20216;-63
2023/04/06 07:41:50;;;;;;;12.70;11.50;;;8.00;94.40;;;9.88;46.66;98184.19;5238653;28;20841;-65
2023/04/06 07:44:23;;;;;;;12.40;11.40;;;8.20;93.70;;;9.84;47.04;98177.09;5239445;28;20335;-65
2023/04/06 07:46:57;;;;;;;13.07;11.77;;;8.10;93.40;;;9.95;47.04;98177.81;5239375;28;20601;-65
2023/04/06 07:49:32;;;;;;;13.67;12.37;;;8.30;93.40;;;10.09;47.20;98171.91;5236560;28;20211;-65
2023/04/06 07:52:05;;;;;;;13.68;12.40;;;8.60;92.90;;;10.18;46.31;98172.47;5241277;28;20468;-63
2023/04/06 07:54:38;;;;;;;12.63;11.63;;;8.60;92.20;;;10.38;45.12;98171.22;5243892;28;20220;-63
2023/04/06 07:57:11;;;;;;;12.10;11.00;;;9.00;92.10;;;10.51;45.96;98162.66;5239448;28;20200;-64
2023/04/06 07:59:44;;;;;;;13.68;12.48;;;9.20;91.70;;;10.62;44.16;98169.31;5236659;28;20200;-63
2023/04/06 08:02:18;;;;;;;14.23;12.98;;;9.40;90.20;;;10.76;43.29;98165.94;5239484;28;20208;-64
2023/04/06 08:04:51;;;;;;;13.00;11.77;;;9.50;88.70;;;10.83;41.94;98172.31;5232924;28;20229;-63
2023/04/06 08:07:24;;;;;;;13.07;11.93;;;9.60;86.80;;;10.69;41.74;98174.00;5244012;28;20200;-63
2023/04/06 08:09:58;;;;;;;13.55;12.40;;;9.50;86.80;;;10.77;42.24;98170.25;5235073;28;20204;-63
2023/04/06 08:12:33;;;;;;;13.88;12.48;;;9.60;86.90;;;11.00;40.71;98175.88;5230533;28;20197;-63
2023/04/06 08:15:07;;;;;;;14.30;13.00;;;9.80;84.50;;;11.14;39.74;98171.59;5228625;28;20745;-64
2023/04/06 08:17:41;;;;;;;12.55;11.45;;;10.00;83.30;;;11.37;40.70;98163.59;5236054;28;20196;-63
2023/04/06 08:20:15;;;;;;;13.20;12.00;;;10.20;83.70;;;11.47;41.27;98170.13;5236109;28;20235;-64
2023/04/06 08:22:48;;;;;;;14.20;12.90;;;10.50;84.60;;;11.64;39.69;98174.56;5231340;28;20228;-63
2023/04/06 08:25:25;;;;;;;13.23;12.00;;;10.50;83.00;;;11.49;39.30;98172.00;5233665;28;20303;-63
2023/04/06 08:27:57;;;;;;;13.63;12.43;;;10.50;82.50;;;11.47;40.10;98171.03;5232116;28;20237;-63
2023/04/06 08:34:44;;;;;;;14.45;13.05;;;10.50;83.00;;;11.76;39.74;98163.25;5225407;28;20245;-63
2023/04/06 08:37:17;;;;;;;13.80;12.52;;;10.60;82.80;;;11.70;39.15;98162.13;5229032;28;20303;-64
2023/04/06 08:39:50;;;;;;;13.35;12.18;;;10.60;80.70;;;11.82;39.20;98166.19;5227094;28;20201;-63
2023/04/06 08:42:27;;;;;;;13.10;11.80;;;10.80;81.10;;;12.03;38.14;98164.00;5231973;28;20204;-63
2023/04/06 08:45:00;;;;;;;13.70;12.38;;;10.90;79.30;;;12.17;38.47;98160.50;5226400;28;20696;-63
2023/04/06 08:47:35;;;;;;;14.35;13.00;;;11.10;80.10;;;12.44;37.84;98155.13;5231243;28;20198;-63
2023/04/06 08:50:12;;;;;;;14.13;12.93;;;11.50;79.10;;;12.41;37.43;98153.28;5230794;28;20197;-63
2023/04/06 08:52:49;;;;;;;13.95;12.55;;;11.50;77.60;;;12.40;37.29;98156.66;5228542;28;20671;-63
2023/04/06 08:55:23;;;;;;;13.95;12.80;;;11.50;78.30;;;12.20;37.66;98147.00;5232467;28;20681;-63
2023/04/06 08:57:57;;;;;;;14.10;12.80;;;11.10;78.30;;;12.23;37.42;98150.59;5237229;28;20664;-63
2023/04/06 09:00:30;;;;;;;12.75;11.52;;;11.20;77.90;;;12.50;36.10;98148.66;5238770;28;20228;-63
2023/04/06 09:03:06;;;;;;;13.50;12.25;;;11.50;77.00;;;12.54;36.56;98145.47;5236357;28;20200;-63
2023/04/06 09:05:41;;;;;;;13.43;12.13;;;11.60;76.70;;;12.77;36.20;98138.13;5234105;28;20216;-63
2023/04/06 09:08:15;;;;;;;14.75;13.35;;;11.90;75.90;;;12.62;36.36;98138.19;5232116;28;20235;-63
2023/04/06 09:10:51;;;;;;;13.93;12.63;;;11.70;75.00;;;12.84;34.80;98142.75;5229823;28;20480;-64
2023/04/06 09:13:24;;;;;;;13.77;12.57;;;12.00;73.10;;;12.80;34.25;98140.84;5230418;28;20269;-64
2023/04/06 09:16:02;;;;;;;13.20;12.00;;;11.90;72.20;;;12.83;34.62;98138.44;5231601;28;20252;-64
2023/04/06 09:18:35;;;;;;;13.20;11.90;;;11.90;73.50;;;12.92;35.15;98130.34;5241870;28;20211;-64
2023/04/06 09:21:11;;;;;;;13.35;11.98;;;12.00;73.40;;;12.79;35.19;98127.16;5230922;28;20259;-64
2023/04/06 09:23:44;;;;;;;13.23;12.02;;;11.90;73.50;;;12.94;35.99;98137.31;5232206;28;20196;-63
2023/04/06 09:26:19;;;;;;;12.52;11.43;;;12.00;74.80;;;13.22;34.63;98129.34;5237881;28;20393;-64
2023/04/06 09:28:57;;;;;;;11.65;10.52;;;12.40;72.40;;;13.38;32.94;98136.16;5234031;28;20729;-64
2023/04/06 09:31:32;;;;;;;11.52;10.38;;;12.60;70.30;;;13.42;33.06;98130.41;5231283;28;20702;-64
2023/04/06 09:34:06;;;;;;;10.40;9.50;;;12.60;69.70;;;13.58;32.34;98132.03;5234620;28;20276;-64
2023/04/06 09:36:41;;;;;;;9.38;8.48;;;12.80;67.90;;;13.59;32.44;98125.19;5235899;28;20197;-64
2023/04/06 09:39:14;;;;;;;10.05;9.00;;;12.70;66.80;;;13.68;31.85;98130.81;5234940;28;20207;-63
2023/04/06 09:41:51;;;;;;;10.38;9.32;;;12.90;66.70;;;13.74;32.07;98123.41;5229817;28;20659;-64
2023/04/06 09:44:24;;;;;;;11.20;10.13;;;12.90;66.80;;;13.69;31.73;98119.72;5238299;28;20292;-63
2023/04/06 09:46:57;;;;;;;11.02;10.02;;;12.80;67.90;;;13.58;32.06;98121.75;5234464;28;20224;-64
2023/04/06 09:49:35;;;;;;;10.77;9.77;;;12.70;67.90;;;13.68;32.84;98117.97;5229375;28;20319;-64
2023/04/06 09:52:12;;;;;;;9.70;8.70;;;12.90;67.40;;;13.78;30.54;98115.03;5233325;28;20676;-63
2023/04/06 09:54:48;;;;;;;8.30;7.50;;;13.00;64.90;;;14.05;28.39;98112.91;5229611;28;20255;-63
2023/04/06 09:57:26;;;;;;;8.40;7.72;;;13.30;61.50;;;14.06;29.02;98108.66;5234410;28;20232;-63
2023/04/06 10:00:09;;;;;;;9.75;8.85;;;13.40;62.20;;;14.08;29.34;98109.59;5233836;28;20252;-64
2023/04/06 10:02:51;;;;;;;11.52;10.43;;;13.40;62.90;;;13.95;29.06;98101.31;5235252;28;20242;-63
2023/04/06 10:05:33;;;;;;;10.50;9.60;;;13.20;61.20;;;13.87;29.06;98097.47;5234486;28;20624;-64
2023/04/06 10:08:11;;;;;;;10.25;9.27;;;13.00;62.90;;;13.97;30.21;98102.25;5233659;28;20212;-63
2023/04/06 10:10:44;;;;;;;10.10;9.20;;;13.20;63.20;;;13.97;28.40;98101.38;5236262;28;20223;-64
2023/04/06 10:13:19;;;;;;;9.88;9.07;;;13.20;60.50;;;13.96;27.67;98092.81;5237435;28;20204;-63
2023/04/06 10:15:53;;;;;;;10.15;9.25;;;13.20;60.40;;;14.15;29.04;98091.97;5235401;28;20228;-64
2023/04/06 10:18:27;;;;;;;10.65;9.65;;;13.50;60.60;;;14.12;27.73;98093.50;5230954;28;20843;-64
2023/04/06 10:21:07;;;;;;;10.70;9.80;;;13.50;60.30;;;14.04;28.78;98085.44;5236448;28;20263;-66
2023/04/06 10:23:48;;;;;;;9.55;8.65;;;13.30;61.40;;;14.05;29.08;98091.44;5238237;28;20204;-64
2023/04/06 10:26:22;;;;;;;9.65;8.82;;;13.30;62.00;;;14.12;30.32;98083.22;5235368;28;20216;-64
2023/04/06 10:28:56;;;;;;;9.05;8.20;;;13.30;62.70;;;14.10;29.27;98092.56;5230639;28;20298;-64
2023/04/06 10:31:29;;;;;;;9.23;8.38;;;13.30;61.80;;;14.01;29.99;98079.28;5233022;28;20577;-65
2023/04/06 10:34:03;;;;;;;8.13;7.38;;;13.10;62.80;;;13.88;30.01;98078.69;5239890;28;20196;-66
2023/04/06 10:36:37;;;;;;;10.27;9.38;;;13.00;63.20;;;13.85;29.46;98081.13;5236484;28;20201;-65
2023/04/06 10:39:12;;;;;;;10.50;9.50;;;13.20;63.20;;;13.81;31.41;98092.06;5236224;28;20719;-64
2023/04/06 10:41:48;;;;;;;9.55;8.75;;;13.00;65.00;;;13.83;32.21;98087.00;5237356;28;20598;-64
2023/04/06 10:44:22;;;;;;;9.00;8.25;;;13.00;65.80;;;13.94;31.82;98088.41;5241604;28;20718;-65